Time;durP1;ratioP1;P1;durP2;ratioP2;P2;SDS_P1;SDS_P2;PMS_P1;PMS_P2;Temp;Humidity;BMP_temperature;BMP_pressure;BME280_temperature;BME280_humidity;BME280_pressure;Samples;Min_cycle;Max_cycle;Signal;HPM_P1;HPM_P2
2021/08/27 00:01:14;;;;;;;4.03;3.20;;;;;;;11.75;100.00;100930.75;5065403;28;20030;-87
2021/08/27 00:03:40;;;;;;;6.45;3.40;;;;;;;11.79;100.00;100943.44;5064667;28;20625;-87
2021/08/27 00:06:06;;;;;;;4.85;3.80;;;;;;;11.78;100.00;100933.75;5066388;28;20036;-86
2021/08/27 00:08:31;;;;;;;4.28;3.38;;;;;;;11.84;100.00;100936.50;5067887;28;20097;-88
2021/08/27 00:10:58;;;;;;;6.60;3.55;;;;;;;11.74;100.00;100935.28;5086078;28;20105;-87
2021/08/27 00:13:26;;;;;;;5.55;2.85;;;;;;;11.84;100.00;100929.25;5065560;28;20027;-87
2021/08/27 00:15:51;;;;;;;5.82;3.53;;;;;;;11.85;100.00;100935.44;5067359;28;20052;-86
2021/08/27 00:18:17;;;;;;;4.70;3.42;;;;;;;11.86;100.00;100931.72;5068576;28;20116;-87
2021/08/27 00:20:43;;;;;;;6.15;3.70;;;;;;;11.93;100.00;100940.38;5061919;28;20085;-86
2021/08/27 00:23:09;;;;;;;5.32;3.45;;;;;;;12.01;100.00;100931.84;5083881;28;20028;-87
2021/08/27 00:25:34;;;;;;;5.05;2.95;;;;;;;11.95;100.00;100928.31;5068865;28;20489;-87
2021/08/27 00:28:00;;;;;;;5.20;2.65;;;;;;;12.02;100.00;100933.47;5081424;28;20032;-86
2021/08/27 00:30:28;;;;;;;4.85;2.88;;;;;;;12.05;100.00;100941.03;5072011;28;20040;-86
2021/08/27 00:32:54;;;;;;;3.40;2.55;;;;;;;12.09;100.00;100942.16;5067556;28;20539;-87
2021/08/27 00:35:21;;;;;;;6.75;3.00;;;;;;;12.10;100.00;100933.84;5068844;28;20024;-87
2021/08/27 00:37:47;;;;;;;3.30;3.00;;;;;;;12.15;100.00;100946.50;5069140;28;20024;-87
2021/08/27 00:40:12;;;;;;;4.53;2.92;;;;;;;12.23;100.00;100945.25;5070052;28;20032;-86
2021/08/27 00:42:38;;;;;;;5.78;3.13;;;;;;;12.31;99.77;100939.41;5072071;28;20028;-86
2021/08/27 00:45:04;;;;;;;4.20;3.80;;;;;;;12.26;99.92;100940.19;5068590;28;20032;-87
2021/08/27 00:47:30;;;;;;;5.63;4.00;;;;;;;12.33;99.28;100938.06;5087278;28;20208;-86
2021/08/27 00:49:56;;;;;;;4.55;4.00;;;;;;;12.30;99.12;100935.91;5086660;28;20123;-85
2021/08/27 00:52:22;;;;;;;7.10;4.35;;;;;;;12.32;99.02;100933.78;5086703;28;20023;-86
2021/08/27 00:54:52;;;;;;;5.82;3.70;;;;;;;12.29;99.17;100928.91;5070708;28;20020;-87
2021/08/27 00:57:24;;;;;;;4.53;3.88;;;;;;;12.24;99.33;100923.50;5068352;28;20085;-87
2021/08/27 00:59:50;;;;;;;8.20;3.70;;;;;;;12.30;99.56;100930.53;5068669;28;20020;-86
2021/08/27 01:02:16;;;;;;;4.65;3.55;;;;;;;12.40;98.74;100933.31;5072309;28;20081;-87
2021/08/27 01:04:44;;;;;;;5.63;3.50;;;;;;;12.42;98.65;100929.56;5069266;28;20028;-86
2021/08/27 01:07:17;;;;;;;3.75;2.80;;;;;;;12.45;98.32;100929.06;5068486;28;20023;-87
2021/08/27 01:10:21;;;;;;;3.88;2.92;;;;;;;12.37;98.19;100931.13;5070900;28;20443;-87
2021/08/27 01:13:01;;;;;;;5.35;2.80;;;;;;;12.51;97.96;100930.72;5085161;28;20059;-87
2021/08/27 01:16:01;;;;;;;5.30;2.55;;;;;;;12.53;97.53;100918.63;5070345;28;20394;-87
2021/08/27 01:18:36;;;;;;;3.55;2.47;;;;;;;12.63;97.29;100923.28;5070129;28;20107;-87
2021/08/27 01:21:37;;;;;;;2.47;1.70;;;;;;;12.67;96.49;100927.88;5070846;28;20024;-86
2021/08/27 01:24:06;;;;;;;3.00;1.70;;;;;;;12.75;95.64;100925.78;5005148;28;20034;-86
2021/08/27 01:26:36;;;;;;;2.53;1.80;;;;;;;12.64;95.99;100930.28;5055889;28;20075;-87
2021/08/27 01:29:04;;;;;;;2.25;1.38;;;;;;;12.64;95.90;100932.97;5071795;28;20043;-85
2021/08/27 01:31:40;;;;;;;2.15;1.60;;;;;;;12.68;95.53;100926.81;5090559;28;20082;-86
2021/08/27 01:34:15;;;;;;;2.35;1.48;;;;;;;12.68;95.39;100928.69;5069567;28;20035;-87
2021/08/27 01:36:42;;;;;;;2.13;1.55;;;;;;;12.71;95.06;100933.56;5087752;28;20024;-86
2021/08/27 01:39:11;;;;;;;3.85;1.40;;;;;;;12.71;94.82;100939.75;5089975;28;20032;-87
2021/08/27 01:41:40;;;;;;;2.28;1.60;;;;;;;12.73;94.74;100934.09;5070616;28;20024;-86
2021/08/27 01:44:10;;;;;;;2.00;1.50;;;;;;;12.70;94.94;100934.63;5086763;28;20089;-86
2021/08/27 01:46:40;;;;;;;1.70;1.42;;;;;;;12.75;94.76;100933.84;5068121;28;20439;-86
2021/08/27 01:49:08;;;;;;;2.10;1.90;;;;;;;12.77;94.32;100935.22;5085027;28;20028;-86
2021/08/27 01:51:35;;;;;;;4.38;1.88;;;;;;;12.67;94.60;100941.31;5067724;28;20036;-86
2021/08/27 01:54:05;;;;;;;1.92;1.63;;;;;;;12.47;95.34;100943.84;5073162;28;20024;-87
2021/08/27 01:56:36;;;;;;;2.83;1.70;;;;;;;12.52;96.20;100945.75;5065135;28;20046;-86
2021/08/27 01:59:03;;;;;;;2.10;1.83;;;;;;;12.48;95.96;100942.78;5086132;28;20027;-86
2021/08/27 02:01:31;;;;;;;1.95;1.73;;;;;;;12.58;96.07;100947.44;5068657;28;20028;-86
2021/08/27 02:04:03;;;;;;;1.92;1.48;;;;;;;12.62;95.37;100938.59;5083060;28;20107;-86
2021/08/27 02:06:30;;;;;;;2.05;1.77;;;;;;;12.57;95.78;100945.81;5063689;28;20032;-85
2021/08/27 02:09:00;;;;;;;4.18;1.90;;;;;;;12.48;96.28;100937.41;5081387;28;20036;-87
2021/08/27 02:11:27;;;;;;;1.83;1.70;;;;;;;12.59;95.58;100939.13;5080898;28;20023;-85
2021/08/27 02:13:54;;;;;;;2.10;1.90;;;;;;;12.64;95.15;100935.66;5082969;28;20464;-86
2021/08/27 02:16:20;;;;;;;3.55;1.80;;;;;;;12.67;95.31;100944.00;5064560;28;20020;-87
2021/08/27 02:18:45;;;;;;;2.80;2.05;;;;;;;12.69;95.13;100944.56;5066909;28;20478;-86
2021/08/27 02:21:11;;;;;;;2.40;2.20;;;;;;;12.72;94.95;100943.25;5065883;28;20028;-87
2021/08/27 02:23:41;;;;;;;2.88;1.90;;;;;;;12.70;94.88;100940.81;5067814;28;20751;-87
2021/08/27 02:26:12;;;;;;;5.50;2.30;;;;;;;12.71;94.87;100937.06;5081953;28;20035;-86
2021/08/27 02:28:40;;;;;;;4.45;1.88;;;;;;;12.72;94.65;100937.84;5081811;28;20469;-85
2021/08/27 02:31:08;;;;;;;3.55;2.20;;;;;;;12.69;94.32;100946.44;5082005;28;20065;-86
2021/08/27 02:33:37;;;;;;;3.25;1.90;;;;;;;12.66;94.55;100941.59;5081311;28;20027;-86
2021/08/27 02:36:04;;;;;;;2.88;2.45;;;;;;;12.60;94.43;100937.25;5081620;28;20024;-86
2021/08/27 02:38:34;;;;;;;4.78;2.42;;;;;;;12.54;94.60;100946.31;5064402;28;20145;-86
2021/08/27 02:41:00;;;;;;;2.55;2.20;;;;;;;12.49;94.83;100948.97;5063797;28;20102;-85
2021/08/27 02:43:26;;;;;;;3.08;2.17;;;;;;;12.46;94.36;100946.78;5067723;28;20490;-87
2021/08/27 02:45:51;;;;;;;2.42;2.05;;;;;;;12.42;94.72;100954.56;5063909;28;20035;-85
2021/08/27 02:48:17;;;;;;;3.97;1.95;;;;;;;12.39;94.83;100947.00;5065624;28;20020;-85
2021/08/27 02:50:54;;;;;;;2.35;2.15;;;;;;;12.34;94.75;100946.94;5063766;28;20039;-85
2021/08/27 02:53:23;;;;;;;4.28;2.10;;;;;;;12.31;94.70;100950.97;5064104;28;20473;-85
2021/08/27 02:55:58;;;;;;;3.20;2.03;;;;;;;12.27;94.66;100949.84;5065389;28;20036;-85
2021/08/27 03:02:15;;;;;;;2.90;2.08;;;;;;;12.25;94.64;100943.13;4996919;28;20049;-86
2021/08/27 03:04:56;;;;;;;2.85;2.00;;;;;;;12.20;94.42;100957.28;5057992;28;21332;-86
2021/08/27 03:07:24;;;;;;;3.60;2.08;;;;;;;12.22;94.44;100955.19;5082153;28;22086;-86
2021/08/27 03:10:14;;;;;;;4.03;2.20;;;;;;;12.21;94.17;100955.41;5079266;28;20036;-86
2021/08/27 03:12:46;;;;;;;3.20;1.80;;;;;;;12.23;94.09;100956.00;5062591;28;20036;-86
2021/08/27 03:15:33;;;;;;;2.17;1.90;;;;;;;12.21;94.03;100953.56;5081803;28;20090;-85
2021/08/27 03:18:09;;;;;;;2.20;1.85;;;;;;;12.22;93.91;100957.88;5061894;28;20032;-86
2021/08/27 03:21:00;;;;;;;3.15;2.30;;;;;;;12.21;93.80;100961.63;5063044;28;20120;-85
2021/08/27 03:23:30;;;;;;;4.68;2.20;;;;;;;12.18;93.72;100958.59;5063557;28;20101;-85
2021/08/27 03:25:56;;;;;;;2.28;2.05;;;;;;;12.16;93.87;100958.88;5062764;28;20027;-85
2021/08/27 03:28:27;;;;;;;2.47;2.20;;;;;;;12.14;93.84;100961.00;5066573;28;20032;-86
2021/08/27 03:30:57;;;;;;;2.10;1.85;;;;;;;12.17;93.84;100960.47;5062925;28;20032;-85
2021/08/27 03:33:25;;;;;;;2.47;2.03;;;;;;;12.19;94.04;100954.84;5068144;28;20545;-86
2021/08/27 03:35:52;;;;;;;3.92;2.22;;;;;;;12.22;93.87;100962.44;5065013;28;20023;-86
2021/08/27 03:38:26;;;;;;;3.13;2.28;;;;;;;12.20;93.88;100959.97;5065145;28;20582;-86
2021/08/27 03:40:55;;;;;;;3.42;2.38;;;;;;;12.21;93.86;100953.56;5065109;28;20031;-86
2021/08/27 03:43:22;;;;;;;6.20;2.55;;;;;;;12.22;93.79;100954.38;5080155;28;20106;-86
2021/08/27 03:45:49;;;;;;;4.47;2.40;;;;;;;12.23;93.89;100956.81;5063592;28;20023;-85
2021/08/27 03:48:20;;;;;;;7.32;2.50;;;;;;;12.22;93.83;100955.19;5065175;28;20078;-86
2021/08/27 03:50:49;;;;;;;3.78;2.45;;;;;;;12.25;93.70;100959.22;5065077;28;20143;-85
2021/08/27 03:53:15;;;;;;;4.30;2.60;;;;;;;12.29;93.79;100954.97;5065344;28;20081;-85
2021/08/27 03:55:41;;;;;;;3.67;2.38;;;;;;;12.30;93.64;100952.03;5080992;28;20545;-85
2021/08/27 03:58:12;;;;;;;2.95;2.20;;;;;;;12.29;93.58;100957.66;5080074;28;20015;-86
2021/08/27 04:00:39;;;;;;;3.42;2.58;;;;;;;12.32;93.39;100962.50;5062892;28;20118;-85
2021/08/27 04:03:04;;;;;;;3.50;2.55;;;;;;;12.30;93.52;100959.28;5076798;28;20028;-87
2021/08/27 04:05:30;;;;;;;5.40;2.42;;;;;;;12.27;93.42;100963.28;5070675;28;20046;-86
2021/08/27 04:07:56;;;;;;;5.55;2.10;;;;;;;12.26;93.60;100967.03;5071233;28;20050;-86
2021/08/27 04:10:21;;;;;;;4.15;2.22;;;;;;;12.23;93.86;100962.19;5087563;28;20423;-86
2021/08/27 04:12:50;;;;;;;4.18;2.50;;;;;;;12.26;93.69;100968.91;5070713;28;20028;-85
2021/08/27 04:15:25;;;;;;;3.60;2.47;;;;;;;12.29;93.75;100966.53;5067312;28;20044;-86
2021/08/27 04:17:52;;;;;;;3.22;2.15;;;;;;;12.34;93.71;100968.44;5066553;28;20036;-86
2021/08/27 04:20:18;;;;;;;3.80;2.53;;;;;;;12.35;93.76;100960.13;5069681;28;21932;-87
2021/08/27 04:22:44;;;;;;;4.72;2.67;;;;;;;12.39;93.55;100960.44;5070628;28;20039;-85
2021/08/27 04:25:09;;;;;;;4.85;2.60;;;;;;;12.42;93.68;100969.88;5070246;28;20466;-85
2021/08/27 04:27:35;;;;;;;2.85;2.42;;;;;;;12.45;93.72;100969.38;5069649;28;20102;-85
2021/08/27 04:30:01;;;;;;;3.45;2.80;;;;;;;12.49;93.62;100967.78;5067217;28;20102;-84
2021/08/27 04:32:26;;;;;;;7.85;2.80;;;;;;;12.52;93.70;100967.25;5071610;28;20035;-85
2021/08/27 04:34:52;;;;;;;3.85;2.92;;;;;;;12.54;93.94;100965.94;5068840;28;20106;-86
2021/08/27 04:37:17;;;;;;;12.00;4.03;;;;;;;12.58;93.49;100968.94;5070647;28;20016;-84
2021/08/27 04:39:46;;;;;;;7.07;3.58;;;;;;;12.60;93.51;100961.44;5073158;28;20077;-85
2021/08/27 04:42:11;;;;;;;5.15;2.90;;;;;;;12.65;93.46;100969.53;5072066;28;20057;-85
2021/08/27 04:44:37;;;;;;;2.97;2.67;;;;;;;12.66;93.24;100968.47;5071210;28;20028;-85
2021/08/27 04:47:03;;;;;;;4.63;3.10;;;;;;;12.63;93.23;100968.97;5070033;28;20446;-85
2021/08/27 04:49:30;;;;;;;5.00;3.70;;;;;;;12.65;93.05;100972.22;5069825;28;20038;-85
2021/08/27 04:51:59;;;;;;;5.85;3.35;;;;;;;12.62;93.28;100970.88;5070001;28;21960;-85
2021/08/27 04:54:24;;;;;;;5.35;3.13;;;;;;;12.67;93.18;100972.78;5067917;28;20062;-85
2021/08/27 04:56:52;;;;;;;3.17;2.75;;;;;;;12.72;93.15;100972.81;5066065;28;20133;-85
2021/08/27 04:59:18;;;;;;;5.15;3.42;;;;;;;12.77;93.15;100972.88;5069202;28;20031;-85
2021/08/27 05:01:43;;;;;;;4.05;3.50;;;;;;;12.79;93.11;100968.03;5068571;28;21159;-84
2021/08/27 05:04:09;;;;;;;3.80;3.17;;;;;;;12.83;92.96;100971.84;5084852;28;20413;-85
2021/08/27 05:06:37;;;;;;;3.58;3.05;;;;;;;12.87;93.06;100972.13;5082214;28;20027;-84
2021/08/27 05:09:07;;;;;;;3.92;2.90;;;;;;;12.90;93.02;100975.09;5085240;28;20135;-86
2021/08/27 05:11:33;;;;;;;4.10;3.22;;;;;;;12.95;92.90;100982.41;5067052;28;20016;-85
2021/08/27 05:13:58;;;;;;;3.22;2.92;;;;;;;12.97;92.82;100978.41;5068633;28;20050;-85
2021/08/27 05:16:24;;;;;;;7.35;3.55;;;;;;;13.00;93.15;100982.44;5081068;28;20020;-86
2021/08/27 05:18:49;;;;;;;3.42;2.58;;;;;;;13.04;92.77;100983.53;5080912;28;20027;-85
2021/08/27 05:21:22;;;;;;;8.27;3.20;;;;;;;13.07;92.64;100987.59;5063230;28;20093;-86
2021/08/27 05:23:48;;;;;;;4.53;3.13;;;;;;;13.10;92.67;100984.38;5064968;28;20028;-85
2021/08/27 05:26:13;;;;;;;3.25;2.88;;;;;;;13.12;92.55;100991.16;5063959;28;20757;-85
2021/08/27 05:28:39;;;;;;;3.22;2.42;;;;;;;13.13;92.58;100983.88;5063111;28;20150;-85
2021/08/27 05:31:05;;;;;;;5.47;3.20;;;;;;;13.14;92.44;100994.38;5067199;28;20024;-85
2021/08/27 05:33:30;;;;;;;4.20;3.30;;;;;;;13.16;92.38;100996.81;5075643;28;20038;-85
2021/08/27 05:35:58;;;;;;;3.83;3.33;;;;;;;13.19;92.59;100996.31;5064066;28;20030;-85
2021/08/27 05:38:26;;;;;;;3.83;3.03;;;;;;;13.22;92.58;100998.50;5063461;28;20077;-85
2021/08/27 05:40:51;;;;;;;5.80;3.40;;;;;;;13.24;92.38;101002.53;5078701;28;20111;-85
2021/08/27 05:43:17;;;;;;;5.93;3.42;;;;;;;13.22;92.46;101011.94;5063511;28;20127;-85
2021/08/27 05:45:45;;;;;;;5.18;2.90;;;;;;;13.28;92.48;101005.53;5062120;28;20055;-85
2021/08/27 05:48:11;;;;;;;3.55;3.25;;;;;;;13.35;92.04;101008.00;5079141;28;20028;-86
2021/08/27 05:50:37;;;;;;;5.40;3.38;;;;;;;13.38;92.00;101010.97;5063155;28;20550;-85
2021/08/27 05:53:03;;;;;;;3.92;3.00;;;;;;;13.43;91.96;101012.88;5063950;28;20039;-85
2021/08/27 05:55:28;;;;;;;5.55;3.53;;;;;;;13.49;91.60;101015.38;5065120;28;20052;-85
2021/08/27 05:57:57;;;;;;;4.40;3.63;;;;;;;13.53;91.73;101024.53;5068332;28;20024;-84
2021/08/27 06:00:23;;;;;;;4.63;3.30;;;;;;;13.60;91.54;101019.72;5063704;28;20024;-86
2021/08/27 06:02:51;;;;;;;4.18;3.17;;;;;;;13.70;91.16;101024.34;5065098;28;20036;-85
2021/08/27 06:05:20;;;;;;;4.18;3.10;;;;;;;13.78;90.79;101025.72;5058531;28;20795;-85
2021/08/27 06:07:45;;;;;;;3.88;3.30;;;;;;;13.85;90.39;101020.94;5065002;28;20590;-86
2021/08/27 06:10:11;;;;;;;3.58;2.85;;;;;;;13.94;90.13;101024.72;5063237;28;20036;-85
2021/08/27 06:12:38;;;;;;;4.15;3.30;;;;;;;14.00;90.00;101023.66;5064994;28;20087;-86
2021/08/27 06:15:05;;;;;;;3.65;2.90;;;;;;;14.05;89.53;101023.69;5065955;28;20040;-85
2021/08/27 06:17:41;;;;;;;;;;;;;;;;;;;;;
2021/08/27 06:20:08;;;;;;;3.53;3.15;;;;;;;14.11;89.48;101030.72;5071479;28;20134;-86
2021/08/27 06:22:34;;;;;;;4.90;3.58;;;;;;;14.15;89.46;101026.41;5051913;28;20094;-86
2021/08/27 06:25:00;;;;;;;3.65;3.25;;;;;;;14.19;89.17;101029.41;5053292;28;20035;-85
2021/08/27 06:27:26;;;;;;;3.65;3.35;;;;;;;14.23;89.33;101035.06;5052306;28;20023;-86
2021/08/27 06:29:52;;;;;;;4.22;3.38;;;;;;;14.30;89.15;101038.31;5049376;28;20270;-85
2021/08/27 06:32:20;;;;;;;5.38;3.33;;;;;;;14.32;88.75;101042.34;5069786;28;20036;-86
2021/08/27 06:34:46;;;;;;;4.40;3.92;;;;;;;14.37;88.56;101052.38;5051117;28;20051;-86
2021/08/27 06:37:21;;;;;;;4.70;3.83;;;;;;;14.44;88.73;101042.16;5053411;28;20036;-86
2021/08/27 06:39:46;;;;;;;;;;;;;;;14.49;88.85;101052.94;5052710;28;20110;-86
2021/08/27 06:42:12;;;;;;;4.60;4.03;;;;;;;14.58;88.46;101051.34;5054302;28;20405;-86
2021/08/27 06:44:39;;;;;;;3.58;3.22;;;;;;;14.65;88.02;101051.91;5073829;28;20031;-86
2021/08/27 06:47:08;;;;;;;3.88;3.38;;;;;;;14.75;87.19;101049.22;5053121;28;20187;-86
2021/08/27 06:49:33;;;;;;;1.35;1.25;;;;;;;14.80;86.33;101056.50;5045356;28;20090;-85
2021/08/27 06:52:01;;;;;;;1.23;0.98;;;;;;;14.81;85.11;101050.84;5053359;28;20070;-85
2021/08/27 06:54:27;;;;;;;1.60;1.50;;;;;;;14.84;84.74;101059.47;5055683;28;21041;-85
2021/08/27 06:56:52;;;;;;;2.05;1.38;;;;;;;14.90;84.48;101055.69;5073067;28;20051;-85
2021/08/27 06:59:18;;;;;;;1.50;1.40;;;;;;;15.00;83.95;101061.09;5053963;28;20153;-86
2021/08/27 07:01:44;;;;;;;1.60;1.50;;;;;;;15.05;84.24;101056.50;5070201;28;20111;-85
2021/08/27 07:04:09;;;;;;;3.08;1.70;;;;;;;15.27;84.04;101058.94;5056080;28;20036;-85
2021/08/27 07:06:37;;;;;;;1.60;1.50;;;;;;;15.41;83.54;101059.97;5055045;28;20482;-86
2021/08/27 07:09:03;;;;;;;1.30;1.20;;;;;;;15.60;82.77;101048.63;5047095;28;20520;-85
2021/08/27 07:11:28;;;;;;;2.40;1.20;;;;;;;15.74;82.54;101054.28;5053068;28;20035;-85
2021/08/27 07:13:54;;;;;;;1.17;0.90;;;;;;;15.92;81.34;101050.97;5068663;28;20016;-85
2021/08/27 07:16:19;;;;;;;1.30;1.10;;;;;;;16.12;81.00;101048.19;5054343;28;20038;-85
2021/08/27 07:18:45;;;;;;;1.23;1.08;;;;;;;16.21;79.55;101053.84;5054786;28;20442;-85
2021/08/27 07:21:10;;;;;;;0.88;0.88;;;;;;;16.38;78.20;101057.00;5053706;28;20695;-86
2021/08/27 07:23:36;;;;;;;1.35;0.90;;;;;;;16.46;77.22;101059.09;5054929;28;20117;-85
2021/08/27 07:26:02;;;;;;;0.93;0.90;;;;;;;16.49;76.31;101065.84;5052912;28;20032;-85
2021/08/27 07:28:28;;;;;;;1.42;1.10;;;;;;;16.54;76.57;101061.22;5054397;28;20417;-85
2021/08/27 07:30:53;;;;;;;0.85;0.85;;;;;;;16.76;75.68;101060.03;5059105;28;20047;-85
2021/08/27 07:33:21;;;;;;;1.63;1.00;;;;;;;16.73;73.81;101064.09;5067750;28;20043;-85
2021/08/27 07:35:50;;;;;;;0.98;0.98;;;;;;;17.10;74.09;101068.16;5082342;28;20146;-86
2021/08/27 07:38:15;;;;;;;1.20;1.10;;;;;;;17.18;73.21;101068.34;5049926;28;20032;-85
2021/08/27 07:40:41;;;;;;;0.63;0.63;;;;;;;17.32;72.23;101070.41;5075522;28;20127;-86
2021/08/27 07:43:10;;;;;;;1.65;0.88;;;;;;;17.50;71.11;101072.38;5055676;28;20028;-85
2021/08/27 07:45:35;;;;;;;1.67;1.05;;;;;;;17.75;70.50;101072.13;5054144;28;20421;-85
2021/08/27 07:48:01;;;;;;;1.15;0.90;;;;;;;18.00;70.12;101076.47;5072103;28;20590;-85
2021/08/27 07:50:26;;;;;;;2.22;1.00;;;;;;;18.05;69.95;101070.19;5065770;28;20035;-86
2021/08/27 07:52:52;;;;;;;4.25;1.10;;;;;;;17.93;69.03;101077.91;5070942;28;20101;-85
2021/08/27 07:55:20;;;;;;;4.30;1.00;;;;;;;17.88;68.70;101084.19;5069755;28;20078;-85
2021/08/27 07:57:45;;;;;;;2.38;0.70;;;;;;;17.67;68.15;101088.19;5055590;28;20031;-86
2021/08/27 08:00:12;;;;;;;1.20;0.82;;;;;;;17.78;68.05;101085.13;5051582;28;20747;-85
2021/08/27 08:02:38;;;;;;;0.82;0.70;;;;;;;17.80;68.14;101092.97;5053829;28;20073;-85
2021/08/27 08:05:04;;;;;;;1.40;0.60;;;;;;;17.88;67.63;101088.81;5051128;28;20592;-85
2021/08/27 08:07:29;;;;;;;1.45;0.77;;;;;;;17.89;67.42;101090.44;5055027;28;20054;-85
2021/08/27 08:09:55;;;;;;;4.45;0.63;;;;;;;18.03;67.16;101094.88;5052974;28;20032;-85
2021/08/27 08:12:27;;;;;;;0.50;0.50;;;;;;;17.91;66.90;101088.22;5070906;28;20072;-86
2021/08/27 08:14:53;;;;;;;0.95;0.60;;;;;;;17.99;66.35;101090.31;5056755;28;20485;-86
2021/08/27 08:17:19;;;;;;;0.70;0.50;;;;;;;18.17;65.91;101096.88;5052817;28;20034;-86
2021/08/27 08:19:44;;;;;;;0.82;0.80;;;;;;;18.30;65.78;101096.97;5052973;28;20111;-85
2021/08/27 08:22:10;;;;;;;2.95;0.60;;;;;;;18.20;65.40;101099.00;5053809;28;20138;-85
2021/08/27 08:24:35;;;;;;;1.30;0.50;;;;;;;18.09;65.63;101095.59;5052963;28;20056;-85
2021/08/27 08:27:01;;;;;;;0.40;0.40;;;;;;;18.15;65.83;101105.31;5054535;28;20481;-84
2021/08/27 08:29:29;;;;;;;0.68;0.47;;;;;;;18.08;65.54;101099.41;5045832;28;20036;-85
2021/08/27 08:31:55;;;;;;;1.55;0.70;;;;;;;17.94;66.64;101114.75;5072360;28;20062;-85
2021/08/27 08:34:20;;;;;;;0.93;0.60;;;;;;;18.04;66.64;101109.22;5055455;28;20386;-86
2021/08/27 08:36:46;;;;;;;0.70;0.70;;;;;;;18.09;67.03;101117.31;5055584;28;20024;-86
2021/08/27 08:39:11;;;;;;;0.90;0.90;;;;;;;18.09;67.64;101123.53;5075136;28;20027;-85
2021/08/27 08:41:44;;;;;;;1.02;0.90;;;;;;;17.90;68.56;101125.38;5074245;28;20401;-85
2021/08/27 08:44:09;;;;;;;1.40;1.30;;;;;;;17.83;69.00;101122.22;5055705;28;20040;-86
2021/08/27 08:46:35;;;;;;;2.10;1.80;;;;;;;17.67;70.05;101124.22;5053725;28;20040;-85
2021/08/27 08:49:03;;;;;;;2.55;2.20;;;;;;;17.90;69.72;101127.28;5070800;28;20444;-85
2021/08/27 08:51:30;;;;;;;2.92;2.13;;;;;;;18.18;69.35;101120.19;5049262;28;20497;-85
2021/08/27 08:53:56;;;;;;;2.17;1.98;;;;;;;18.46;69.30;101118.47;5049342;28;20298;-86
2021/08/27 08:56:25;;;;;;;2.10;1.77;;;;;;;18.69;68.02;101120.38;5056786;28;20055;-85
2021/08/27 08:58:50;;;;;;;3.50;1.63;;;;;;;18.58;68.09;101130.53;5075068;28;20032;-86
2021/08/27 09:01:19;;;;;;;2.10;1.60;;;;;;;18.43;68.59;101126.09;5073322;28;20094;-85
2021/08/27 09:03:46;;;;;;;1.95;1.40;;;;;;;18.81;67.54;101130.78;5049017;28;20034;-86
2021/08/27 09:06:11;;;;;;;1.00;1.00;;;;;;;18.87;67.40;101137.75;5055391;28;20124;-85
2021/08/27 09:08:43;;;;;;;1.58;1.10;;;;;;;19.09;66.15;101137.16;5054897;28;20506;-86
2021/08/27 09:11:20;;;;;;;1.08;0.98;;;;;;;19.15;65.28;101134.06;5073313;28;20088;-85
2021/08/27 09:13:48;;;;;;;1.40;1.30;;;;;;;19.05;65.81;101133.44;5053498;28;20796;-86
2021/08/27 09:16:14;;;;;;;2.00;1.52;;;;;;;18.96;65.56;101133.28;5048341;28;20292;-86
2021/08/27 09:18:46;;;;;;;2.60;1.80;;;;;;;18.83;64.89;101136.72;5055649;28;20299;-85
2021/08/27 09:21:31;;;;;;;2.42;2.08;;;;;;;18.70;63.18;101143.69;5074069;28;20268;-85
2021/08/27 09:24:21;;;;;;;1.95;1.67;;;;;;;18.70;64.91;101144.50;5049038;28;20051;-85
2021/08/27 09:26:53;;;;;;;2.38;1.52;;;;;;;18.76;64.08;101144.44;5074786;28;20020;-86
2021/08/27 09:29:42;;;;;;;2.03;1.60;;;;;;;18.97;64.72;101138.41;5074413;28;20532;-85
2021/08/27 09:32:29;;;;;;;2.40;1.63;;;;;;;19.37;65.55;101141.56;5057139;28;20027;-86
2021/08/27 09:35:05;;;;;;;1.60;1.35;;;;;;;18.98;63.30;101142.72;5073970;28;20048;-86
2021/08/27 09:37:41;;;;;;;1.30;1.20;;;;;;;19.17;63.13;101142.72;5073048;28;20024;-85
2021/08/27 09:40:08;;;;;;;1.90;1.38;;;;;;;18.98;63.10;101145.44;5075831;28;20585;-85
2021/08/27 09:43:00;;;;;;;1.65;1.15;;;;;;;18.95;63.05;101151.47;5075216;28;20072;-85
2021/08/27 09:45:45;;;;;;;2.30;1.00;;;;;;;19.20;62.32;101155.69;5071154;28;20311;-86
2021/08/27 09:48:38;;;;;;;0.90;0.90;;;;;;;19.55;60.61;101148.91;5059532;28;20160;-84
2021/08/27 09:51:14;;;;;;;0.80;0.80;;;;;;;20.20;58.69;101146.06;5082453;28;20089;-84
2021/08/27 09:53:42;;;;;;;0.77;0.70;;;;;;;20.57;57.61;101146.97;5078844;28;20595;-85
2021/08/27 09:56:08;;;;;;;0.75;0.75;;;;;;;20.58;56.76;101158.66;5070479;28;20031;-86
2021/08/27 09:58:50;;;;;;;0.80;0.80;;;;;;;20.52;55.10;101160.69;5055908;28;20027;-85
2021/08/27 10:01:18;;;;;;;0.80;0.80;;;;;;;20.35;54.54;101168.63;5055221;28;20173;-86
2021/08/27 10:03:46;;;;;;;1.00;0.80;;;;;;;20.22;55.22;101165.59;5057493;28;20032;-86
2021/08/27 10:06:31;;;;;;;0.90;0.77;;;;;;;19.56;53.07;101171.44;5055465;28;20510;-85
2021/08/27 10:08:56;;;;;;;2.27;0.87;;;;;;;19.49;55.86;101169.09;5055910;28;20031;-86
2021/08/27 10:11:22;;;;;;;0.73;0.73;;;;;;;18.98;54.92;101169.88;5058111;28;20262;-85
2021/08/27 10:13:48;;;;;;;0.55;0.55;;;;;;;19.38;56.15;101174.97;5053779;28;20036;-86
2021/08/27 10:16:17;;;;;;;1.35;0.80;;;;;;;19.56;54.42;101171.44;5073475;28;20055;-86
2021/08/27 10:18:43;;;;;;;0.60;0.60;;;;;;;19.56;55.01;101166.81;5064675;28;20020;-86
2021/08/27 10:21:09;;;;;;;0.73;0.50;;;;;;;19.81;55.65;101167.50;5082590;28;20704;-86
2021/08/27 10:23:36;;;;;;;0.70;0.70;;;;;;;19.82;54.21;101174.53;5061904;28;20537;-85
2021/08/27 10:26:17;;;;;;;0.63;0.60;;;;;;;19.71;53.59;101167.66;5075218;28;20077;-84
2021/08/27 10:28:43;;;;;;;1.88;0.77;;;;;;;19.56;55.46;101172.25;5062433;28;20177;-86
2021/08/27 10:31:10;;;;;;;1.48;0.80;;;;;;;19.57;55.63;101184.78;5069512;28;20407;-85
2021/08/27 10:33:38;;;;;;;1.05;0.95;;;;;;;19.19;56.40;101172.28;5085959;28;20665;-85
2021/08/27 10:36:24;;;;;;;0.85;0.85;;;;;;;19.48;56.53;101167.47;5072205;28;20066;-86
2021/08/27 10:38:52;;;;;;;1.27;0.80;;;;;;;19.59;56.05;101171.69;5054787;28;20039;-86
2021/08/27 10:41:20;;;;;;;2.55;1.00;;;;;;;19.46;55.80;101172.41;5047068;28;20050;-86
2021/08/27 10:43:55;;;;;;;0.77;0.77;;;;;;;19.38;55.71;101170.34;5051396;28;20035;-86
2021/08/27 10:46:22;;;;;;;1.33;0.90;;;;;;;19.45;57.16;101170.78;5070174;28;20560;-86
2021/08/27 10:48:50;;;;;;;2.67;1.00;;;;;;;19.59;57.18;101176.31;5059362;28;20086;-86
2021/08/27 10:51:36;;;;;;;1.05;0.90;;;;;;;19.65;56.77;101177.03;5068135;28;20024;-86
2021/08/27 10:54:03;;;;;;;1.23;1.13;;;;;;;19.46;56.40;101175.13;5068847;28;20031;-86
2021/08/27 10:56:51;;;;;;;1.90;1.40;;;;;;;19.21;57.51;101181.78;5054775;28;20085;-86
2021/08/27 10:59:38;;;;;;;1.98;1.15;;;;;;;18.54;57.46;101182.97;5073138;28;20028;-86
2021/08/27 11:02:05;;;;;;;1.92;1.25;;;;;;;18.78;57.66;101189.19;5055997;28;20046;-87
2021/08/27 11:04:41;;;;;;;2.13;1.45;;;;;;;18.49;58.07;101191.16;5070064;28;20135;-86
2021/08/27 11:07:16;;;;;;;2.13;1.40;;;;;;;18.29;58.46;101187.56;5048501;28;20237;-86
2021/08/27 11:09:59;;;;;;;1.13;1.00;;;;;;;18.24;58.25;101184.94;5056623;28;20031;-86
2021/08/27 11:12:29;;;;;;;1.30;1.00;;;;;;;18.25;59.28;101191.97;5072398;28;20082;-85
2021/08/27 11:15:15;;;;;;;2.47;1.20;;;;;;;18.32;59.28;101187.03;5052838;28;20504;-86
2021/08/27 11:18:32;;;;;;;0.90;0.90;;;;;;;17.80;60.02;101196.78;5063375;28;20076;-85
2021/08/27 11:20:58;;;;;;;0.80;0.80;;;;;;;17.80;61.03;101202.19;5047393;28;20051;-85
2021/08/27 11:23:23;;;;;;;3.35;0.95;;;;;;;17.63;61.00;101196.34;5066820;28;20028;-85
2021/08/27 11:26:03;;;;;;;1.33;1.10;;;;;;;17.49;60.92;101196.19;5058832;28;20038;-85
2021/08/27 11:28:32;;;;;;;1.45;0.95;;;;;;;17.48;61.69;101197.28;5045791;28;20028;-85
2021/08/27 11:31:06;;;;;;;1.00;0.90;;;;;;;17.36;61.13;101196.03;5055571;28;20408;-86
2021/08/27 11:33:41;;;;;;;1.23;0.90;;;;;;;17.30;62.54;101197.16;5054141;28;20035;-86
2021/08/27 11:36:07;;;;;;;;;;;;;;;17.25;62.82;101199.91;5050610;28;20055;-86
2021/08/27 11:38:33;;;;;;;0.75;0.75;;;;;;;17.46;61.59;101201.38;5055199;28;20233;-85
2021/08/27 11:41:00;;;;;;;1.00;1.00;;;;;;;17.45;61.99;101208.69;5054307;28;20390;-85